sensor_id;sensor_type;location;lat;lon;timestamp;pressure;altitude;pressure_sealevel;temperature;humidity
38716;BME280;24833;49.324;8.694;2023-06-14T00:01:20;99291.09;;;20.11;32.10
38716;BME280;24833;49.324;8.694;2023-06-14T00:03:48;99296.78;;;20.05;33.02
38716;BME280;24833;49.324;8.694;2023-06-14T00:06:16;99297.34;;;20.02;33.06
38716;BME280;24833;49.324;8.694;2023-06-14T00:08:44;99290.84;;;20.03;32.32
38716;BME280;24833;49.324;8.694;2023-06-14T00:11:11;99288.69;;;20.00;32.98
38716;BME280;24833;49.324;8.694;2023-06-14T00:13:38;99284.06;;;20.00;32.41
38716;BME280;24833;49.324;8.694;2023-06-14T00:16:05;99282.16;;;19.96;33.02
38716;BME280;24833;49.324;8.694;2023-06-14T00:18:32;99284.06;;;19.95;32.93
38716;BME280;24833;49.324;8.694;2023-06-14T00:21:00;99281.34;;;19.95;33.64
38716;BME280;24833;49.324;8.694;2023-06-14T00:23:29;99282.94;;;19.91;33.42
38716;BME280;24833;49.324;8.694;2023-06-14T00:25:56;99279.44;;;19.91;32.79
38716;BME280;24833;49.324;8.694;2023-06-14T00:28:23;99276.72;;;19.91;32.76
38716;BME280;24833;49.324;8.694;2023-06-14T00:30:50;99282.69;;;19.88;33.74
38716;BME280;24833;49.324;8.694;2023-06-14T00:33:17;99274.81;;;19.86;32.86
38716;BME280;24833;49.324;8.694;2023-06-14T00:35:44;99276.97;;;19.84;34.61
38716;BME280;24833;49.324;8.694;2023-06-14T00:38:11;99274.28;;;19.84;33.85
38716;BME280;24833;49.324;8.694;2023-06-14T00:40:40;99276.69;;;19.85;33.63
38716;BME280;24833;49.324;8.694;2023-06-14T00:43:07;99275.09;;;19.84;33.19
38716;BME280;24833;49.324;8.694;2023-06-14T00:45:34;99270.75;;;19.83;34.24
38716;BME280;24833;49.324;8.694;2023-06-14T00:48:04;99266.41;;;19.82;33.98
38716;BME280;24833;49.324;8.694;2023-06-14T00:50:33;99266.69;;;19.76;33.30
38716;BME280;24833;49.324;8.694;2023-06-14T00:53:01;99273.47;;;19.73;34.63
38716;BME280;24833;49.324;8.694;2023-06-14T00:55:28;99274.00;;;19.75;34.16
38716;BME280;24833;49.324;8.694;2023-06-14T00:57:55;99269.66;;;19.74;33.69
38716;BME280;24833;49.324;8.694;2023-06-14T01:00:23;99271.25;;;19.70;35.00
38716;BME280;24833;49.324;8.694;2023-06-14T01:03:08;99269.09;;;19.72;33.86
38716;BME280;24833;49.324;8.694;2023-06-14T01:12:58;99272.34;;;19.64;34.87
38716;BME280;24833;49.324;8.694;2023-06-14T01:15:31;99276.13;;;19.63;34.33
38716;BME280;24833;49.324;8.694;2023-06-14T01:17:58;99270.72;;;19.63;35.01
38716;BME280;24833;49.324;8.694;2023-06-14T01:20:33;99270.16;;;19.61;34.06
38716;BME280;24833;49.324;8.694;2023-06-14T01:23:04;99266.66;;;19.61;34.24
38716;BME280;24833;49.324;8.694;2023-06-14T01:25:31;99273.41;;;19.58;35.58
38716;BME280;24833;49.324;8.694;2023-06-14T01:28:06;99274.44;;;19.57;35.02
38716;BME280;24833;49.324;8.694;2023-06-14T01:30:41;99271.22;;;19.55;35.02
38716;BME280;24833;49.324;8.694;2023-06-14T01:33:26;99269.00;;;19.52;35.74
38716;BME280;24833;49.324;8.694;2023-06-14T01:35:58;99278.22;;;19.51;35.04
38716;BME280;24833;49.324;8.694;2023-06-14T01:38:28;99282.56;;;19.47;35.56
38716;BME280;24833;49.324;8.694;2023-06-14T01:40:58;99275.50;;;19.41;35.94
38716;BME280;24833;49.324;8.694;2023-06-14T01:43:30;99279.03;;;19.41;35.92
38716;BME280;24833;49.324;8.694;2023-06-14T01:45:58;99270.88;;;19.36;36.13
38716;BME280;24833;49.324;8.694;2023-06-14T01:48:27;99278.44;;;19.34;35.92
38716;BME280;24833;49.324;8.694;2023-06-14T01:50:54;99272.22;;;19.33;36.47
38716;BME280;24833;49.324;8.694;2023-06-14T01:53:21;99271.41;;;19.33;36.15
38716;BME280;24833;49.324;8.694;2023-06-14T01:55:49;99279.53;;;19.33;36.05
38716;BME280;24833;49.324;8.694;2023-06-14T01:58:16;99271.66;;;19.31;36.24
38716;BME280;24833;49.324;8.694;2023-06-14T02:00:43;99279.78;;;19.31;35.81
38716;BME280;24833;49.324;8.694;2023-06-14T02:03:11;99278.44;;;19.29;36.46
38716;BME280;24833;49.324;8.694;2023-06-14T02:05:39;99262.97;;;19.24;36.63
38716;BME280;24833;49.324;8.694;2023-06-14T02:08:07;99274.38;;;19.26;36.35
38716;BME280;24833;49.324;8.694;2023-06-14T02:10:34;99279.22;;;19.24;36.43
38716;BME280;24833;49.324;8.694;2023-06-14T02:13:03;99273.53;;;19.21;36.42
38716;BME280;24833;49.324;8.694;2023-06-14T02:15:30;99270.78;;;19.16;37.02
38716;BME280;24833;49.324;8.694;2023-06-14T02:18:06;99270.50;;;19.12;36.88
38716;BME280;24833;49.324;8.694;2023-06-14T02:20:33;99268.88;;;19.11;37.22
38716;BME280;24833;49.324;8.694;2023-06-14T02:23:00;99274.28;;;19.11;36.77
38716;BME280;24833;49.324;8.694;2023-06-14T02:25:30;99268.28;;;19.04;37.84
38716;BME280;24833;49.324;8.694;2023-06-14T02:27:58;99270.19;;;19.03;38.09
38716;BME280;24833;49.324;8.694;2023-06-14T02:30:25;99263.97;;;19.03;37.48
38716;BME280;24833;49.324;8.694;2023-06-14T02:32:55;99262.84;;;18.99;37.78
38716;BME280;24833;49.324;8.694;2023-06-14T02:35:24;99263.94;;;18.98;37.52
38716;BME280;24833;49.324;8.694;2023-06-14T02:37:55;99264.75;;;18.93;38.17
38716;BME280;24833;49.324;8.694;2023-06-14T02:40:23;99275.84;;;18.97;37.54
38716;BME280;24833;49.324;8.694;2023-06-14T02:42:50;99266.34;;;18.89;38.11
38716;BME280;24833;49.324;8.694;2023-06-14T02:45:17;99270.94;;;18.89;37.66
38716;BME280;24833;49.324;8.694;2023-06-14T02:47:45;99260.91;;;18.89;37.57
38716;BME280;24833;49.324;8.694;2023-06-14T02:50:13;99261.16;;;18.83;38.31
38716;BME280;24833;49.324;8.694;2023-06-14T02:52:40;99258.41;;;18.77;38.78
38716;BME280;24833;49.324;8.694;2023-06-14T02:55:11;99257.31;;;18.73;38.17
38716;BME280;24833;49.324;8.694;2023-06-14T02:57:38;99269.78;;;18.74;38.24
38716;BME280;24833;49.324;8.694;2023-06-14T03:00:08;99273.56;;;18.73;38.43
38716;BME280;24833;49.324;8.694;2023-06-14T03:02:42;99278.38;;;18.66;38.63
38716;BME280;24833;49.324;8.694;2023-06-14T03:05:10;99273.16;;;18.60;39.09
38716;BME280;24833;49.324;8.694;2023-06-14T03:07:37;99274.22;;;18.59;39.21
38716;BME280;24833;49.324;8.694;2023-06-14T03:10:09;99278.81;;;18.58;39.15
38716;BME280;24833;49.324;8.694;2023-06-14T03:12:38;99270.13;;;18.51;39.15
38716;BME280;24833;49.324;8.694;2023-06-14T03:15:07;99274.44;;;18.47;39.08
38716;BME280;24833;49.324;8.694;2023-06-14T03:17:37;99292.78;;;18.45;38.68
38716;BME280;24833;49.324;8.694;2023-06-14T03:20:07;99280.88;;;18.41;39.17
38716;BME280;24833;49.324;8.694;2023-06-14T03:22:35;99286.78;;;18.38;39.31
38716;BME280;24833;49.324;8.694;2023-06-14T03:25:02;99296.50;;;18.39;38.99
38716;BME280;24833;49.324;8.694;2023-06-14T03:27:36;99304.63;;;18.39;39.07
38716;BME280;24833;49.324;8.694;2023-06-14T03:30:05;99301.13;;;18.38;39.38
38716;BME280;24833;49.324;8.694;2023-06-14T03:32:32;99303.53;;;18.35;38.92
38716;BME280;24833;49.324;8.694;2023-06-14T03:35:00;99305.16;;;18.36;39.26
38716;BME280;24833;49.324;8.694;2023-06-14T03:37:27;99304.84;;;18.32;39.01
38716;BME280;24833;49.324;8.694;2023-06-14T03:39:54;99304.56;;;18.29;38.84
38716;BME280;24833;49.324;8.694;2023-06-14T03:42:24;99308.84;;;18.24;39.07
38716;BME280;24833;49.324;8.694;2023-06-14T03:44:51;99313.16;;;18.20;39.44
38716;BME280;24833;49.324;8.694;2023-06-14T03:47:20;99316.94;;;18.19;39.21
38716;BME280;24833;49.324;8.694;2023-06-14T03:49:48;99323.38;;;18.18;39.07
38716;BME280;24833;49.324;8.694;2023-06-14T03:52:15;99332.34;;;18.19;38.80
38716;BME280;24833;49.324;8.694;2023-06-14T03:54:45;99334.97;;;18.14;39.70
38716;BME280;24833;49.324;8.694;2023-06-14T03:57:17;99335.78;;;18.14;39.13
38716;BME280;24833;49.324;8.694;2023-06-14T03:59:44;99338.50;;;18.14;38.84
38716;BME280;24833;49.324;8.694;2023-06-14T04:02:11;99340.38;;;18.14;39.19
38716;BME280;24833;49.324;8.694;2023-06-14T04:04:43;99343.34;;;18.12;39.17
38716;BME280;24833;49.324;8.694;2023-06-14T04:07:12;99357.09;;;18.11;38.96
38716;BME280;24833;49.324;8.694;2023-06-14T04:09:40;99351.94;;;18.09;38.35
38716;BME280;24833;49.324;8.694;2023-06-14T04:12:08;99351.94;;;18.09;38.40
38716;BME280;24833;49.324;8.694;2023-06-14T04:14:35;99357.63;;;18.08;38.27
38716;BME280;24833;49.324;8.694;2023-06-14T04:17:02;99358.38;;;18.03;38.41
38716;BME280;24833;49.324;8.694;2023-06-14T04:19:30;99357.81;;;18.01;38.14
38716;BME280;24833;49.324;8.694;2023-06-14T04:21:58;99369.13;;;17.98;38.68
38716;BME280;24833;49.324;8.694;2023-06-14T04:24:32;99376.66;;;17.96;39.06
38716;BME280;24833;49.324;8.694;2023-06-14T04:26:59;99372.84;;;17.92;38.80
38716;BME280;24833;49.324;8.694;2023-06-14T04:29:29;99385.53;;;17.91;39.40
38716;BME280;24833;49.324;8.694;2023-06-14T04:32:01;99385.22;;;17.88;40.02
38716;BME280;24833;49.324;8.694;2023-06-14T04:34:28;99388.94;;;17.82;40.14
38716;BME280;24833;49.324;8.694;2023-06-14T04:37:01;99388.06;;;17.76;41.33
38716;BME280;24833;49.324;8.694;2023-06-14T04:39:32;99384.44;;;17.70;41.31
38716;BME280;24833;49.324;8.694;2023-06-14T04:42:00;99382.19;;;17.62;41.49
38716;BME280;24833;49.324;8.694;2023-06-14T04:44:30;99378.94;;;17.60;41.42
38716;BME280;24833;49.324;8.694;2023-06-14T04:47:01;99384.72;;;17.47;43.05
38716;BME280;24833;49.324;8.694;2023-06-14T04:49:28;99390.59;;;17.44;42.40
38716;BME280;24833;49.324;8.694;2023-06-14T04:51:58;99394.38;;;17.43;42.72
38716;BME280;24833;49.324;8.694;2023-06-14T04:54:28;99391.28;;;17.34;43.82
38716;BME280;24833;49.324;8.694;2023-06-14T04:56:58;99395.22;;;17.27;43.25
38716;BME280;24833;49.324;8.694;2023-06-14T04:59:26;99394.59;;;17.20;43.91
38716;BME280;24833;49.324;8.694;2023-06-14T05:01:53;99401.06;;;17.19;43.65
38716;BME280;24833;49.324;8.694;2023-06-14T05:04:22;99403.25;;;17.22;43.18
38716;BME280;24833;49.324;8.694;2023-06-14T05:06:49;99410.34;;;17.28;43.99
38716;BME280;24833;49.324;8.694;2023-06-14T05:09:17;99408.19;;;17.47;45.59
38716;BME280;24833;49.324;8.694;2023-06-14T05:11:44;99409.66;;;17.76;44.32
38716;BME280;24833;49.324;8.694;2023-06-14T05:14:12;99414.16;;;18.14;44.35
38716;BME280;24833;49.324;8.694;2023-06-14T05:16:40;99406.34;;;18.45;43.46
38716;BME280;24833;49.324;8.694;2023-06-14T05:19:07;99410.31;;;18.64;43.97
38716;BME280;24833;49.324;8.694;2023-06-14T05:21:34;99407.81;;;18.85;42.32
38716;BME280;24833;49.324;8.694;2023-06-14T05:24:09;99402.09;;;19.13;41.98
38716;BME280;24833;49.324;8.694;2023-06-14T05:26:36;99404.09;;;19.33;41.46
38716;BME280;24833;49.324;8.694;2023-06-14T05:29:03;99410.41;;;19.49;40.69
38716;BME280;24833;49.324;8.694;2023-06-14T05:31:31;99422.00;;;19.86;40.17
38716;BME280;24833;49.324;8.694;2023-06-14T05:33:58;99416.38;;;20.08;39.98
38716;BME280;24833;49.324;8.694;2023-06-14T05:36:25;99424.31;;;20.40;40.08
38716;BME280;24833;49.324;8.694;2023-06-14T05:38:54;99420.56;;;20.47;39.14
38716;BME280;24833;49.324;8.694;2023-06-14T05:41:26;99427.66;;;20.68;38.68
38716;BME280;24833;49.324;8.694;2023-06-14T05:43:55;99433.59;;;21.06;38.44
38716;BME280;24833;49.324;8.694;2023-06-14T05:46:23;99432.50;;;21.12;39.01
38716;BME280;24833;49.324;8.694;2023-06-14T05:48:55;99434.69;;;21.20;38.61
38716;BME280;24833;49.324;8.694;2023-06-14T05:51:23;99435.78;;;21.14;39.01
38716;BME280;24833;49.324;8.694;2023-06-14T05:53:52;99439.84;;;21.37;39.03
38716;BME280;24833;49.324;8.694;2023-06-14T05:56:19;99446.91;;;21.43;39.00
38716;BME280;24833;49.324;8.694;2023-06-14T05:58:46;99435.16;;;21.63;38.20
38716;BME280;24833;49.324;8.694;2023-06-14T06:01:14;99443.25;;;21.83;38.29
38716;BME280;24833;49.324;8.694;2023-06-14T06:03:42;99439.22;;;21.70;38.51
38716;BME280;24833;49.324;8.694;2023-06-14T06:06:13;99447.59;;;21.84;38.57
38716;BME280;24833;49.324;8.694;2023-06-14T06:08:40;99449.47;;;21.94;38.36
38716;BME280;24833;49.324;8.694;2023-06-14T06:11:07;99448.09;;;21.96;38.49
38716;BME280;24833;49.324;8.694;2023-06-14T06:13:35;99453.19;;;22.13;38.12
38716;BME280;24833;49.324;8.694;2023-06-14T06:16:03;99451.03;;;22.15;37.92
38716;BME280;24833;49.324;8.694;2023-06-14T06:18:30;99459.47;;;22.14;37.65
38716;BME280;24833;49.324;8.694;2023-06-14T06:20:57;99459.41;;;22.24;37.55
38716;BME280;24833;49.324;8.694;2023-06-14T06:23:25;99460.84;;;22.11;37.70
38716;BME280;24833;49.324;8.694;2023-06-14T06:25:52;99462.13;;;22.24;38.11
38716;BME280;24833;49.324;8.694;2023-06-14T06:28:19;99463.22;;;22.28;37.84
38716;BME280;24833;49.324;8.694;2023-06-14T06:30:46;99460.75;;;22.26;37.62
38716;BME280;24833;49.324;8.694;2023-06-14T06:33:13;99466.44;;;22.35;37.39
38716;BME280;24833;49.324;8.694;2023-06-14T06:35:41;99468.59;;;22.38;37.43
38716;BME280;24833;49.324;8.694;2023-06-14T06:38:08;99468.91;;;22.32;37.82
38716;BME280;24833;49.324;8.694;2023-06-14T06:40:36;99463.44;;;22.32;37.93
38716;BME280;24833;49.324;8.694;2023-06-14T06:43:03;99467.56;;;22.29;37.74
38716;BME280;24833;49.324;8.694;2023-06-14T06:45:39;99473.00;;;22.29;37.98
38716;BME280;24833;49.324;8.694;2023-06-14T06:48:06;99466.47;;;22.30;37.55
38716;BME280;24833;49.324;8.694;2023-06-14T06:50:34;99474.13;;;22.23;37.90
38716;BME280;24833;49.324;8.694;2023-06-14T06:53:01;99469.75;;;22.27;37.56
38716;BME280;24833;49.324;8.694;2023-06-14T06:55:28;99481.66;;;22.36;37.98
38716;BME280;24833;49.324;8.694;2023-06-14T06:57:55;99481.66;;;22.36;37.45
38716;BME280;24833;49.324;8.694;2023-06-14T07:00:22;99480.56;;;22.42;37.49
38716;BME280;24833;49.324;8.694;2023-06-14T07:02:49;99483.56;;;22.41;37.25
38716;BME280;24833;49.324;8.694;2023-06-14T07:05:16;99477.88;;;22.32;37.49
38716;BME280;24833;49.324;8.694;2023-06-14T07:07:43;99480.59;;;22.32;37.82
38716;BME280;24833;49.324;8.694;2023-06-14T07:10:11;99489.84;;;22.31;37.53
38716;BME280;24833;49.324;8.694;2023-06-14T07:12:38;99490.13;;;22.29;37.28
38716;BME280;24833;49.324;8.694;2023-06-14T07:15:07;99487.72;;;22.23;37.55
38716;BME280;24833;49.324;8.694;2023-06-14T07:17:35;99497.28;;;22.20;37.65
38716;BME280;24833;49.324;8.694;2023-06-14T07:20:04;99495.91;;;22.18;37.58
38716;BME280;24833;49.324;8.694;2023-06-14T07:22:35;99497.81;;;22.12;37.52
38716;BME280;24833;49.324;8.694;2023-06-14T07:25:02;99504.09;;;22.08;37.55
38716;BME280;24833;49.324;8.694;2023-06-14T07:27:29;99504.91;;;22.08;38.07
38716;BME280;24833;49.324;8.694;2023-06-14T07:29:56;99507.38;;;22.10;38.00
38716;BME280;24833;49.324;8.694;2023-06-14T07:32:23;99514.72;;;22.09;37.87
38716;BME280;24833;49.324;8.694;2023-06-14T07:34:51;99503.28;;;22.07;37.70
38716;BME280;24833;49.324;8.694;2023-06-14T07:37:18;99509.00;;;22.11;37.83
38716;BME280;24833;49.324;8.694;2023-06-14T07:39:45;99510.59;;;22.12;38.13
38716;BME280;24833;49.324;8.694;2023-06-14T07:42:12;99518.75;;;22.17;37.98
38716;BME280;24833;49.324;8.694;2023-06-14T07:44:39;99515.47;;;22.20;37.94
38716;BME280;24833;49.324;8.694;2023-06-14T07:47:06;99518.16;;;22.30;38.08
38716;BME280;24833;49.324;8.694;2023-06-14T07:49:33;99518.16;;;22.35;37.79
38716;BME280;24833;49.324;8.694;2023-06-14T07:52:00;99513.75;;;22.39;37.85
38716;BME280;24833;49.324;8.694;2023-06-14T07:54:27;99517.03;;;22.41;38.15
38716;BME280;24833;49.324;8.694;2023-06-14T07:56:55;99518.88;;;22.51;38.38
38716;BME280;24833;49.324;8.694;2023-06-14T07:59:23;99522.38;;;22.62;38.23
38716;BME280;24833;49.324;8.694;2023-06-14T08:01:50;99515.25;;;22.66;37.86
38716;BME280;24833;49.324;8.694;2023-06-14T08:04:17;99518.75;;;22.71;37.79
38716;BME280;24833;49.324;8.694;2023-06-14T08:06:44;99517.94;;;22.71;37.46
38716;BME280;24833;49.324;8.694;2023-06-14T08:09:13;99516.00;;;22.76;37.66
38716;BME280;24833;49.324;8.694;2023-06-14T08:11:40;99515.41;;;22.84;37.72
38716;BME280;24833;49.324;8.694;2023-06-14T08:14:08;99504.47;;;22.95;37.73
38716;BME280;24833;49.324;8.694;2023-06-14T08:16:35;99518.53;;;23.07;37.59
38716;BME280;24833;49.324;8.694;2023-06-14T08:19:02;99519.84;;;23.15;37.77
38716;BME280;24833;49.324;8.694;2023-06-14T08:21:29;99521.44;;;23.21;37.36
38716;BME280;24833;49.324;8.694;2023-06-14T08:23:58;99530.34;;;23.31;37.67
38716;BME280;24833;49.324;8.694;2023-06-14T08:26:25;99524.03;;;23.36;37.18
38716;BME280;24833;49.324;8.694;2023-06-14T08:28:56;99522.06;;;23.42;37.03
38716;BME280;24833;49.324;8.694;2023-06-14T08:31:23;99525.28;;;23.49;36.92
38716;BME280;24833;49.324;8.694;2023-06-14T08:33:52;99523.38;;;23.49;36.63
38716;BME280;24833;49.324;8.694;2023-06-14T08:36:19;99522.75;;;23.57;37.03
38716;BME280;24833;49.324;8.694;2023-06-14T08:38:46;99523.53;;;23.63;36.20
38716;BME280;24833;49.324;8.694;2023-06-14T08:41:21;99523.19;;;23.70;36.33
38716;BME280;24833;49.324;8.694;2023-06-14T08:43:49;99522.06;;;23.76;35.71
38716;BME280;24833;49.324;8.694;2023-06-14T08:46:18;99525.88;;;23.75;35.85
38716;BME280;24833;49.324;8.694;2023-06-14T08:48:49;99522.28;;;23.79;35.74
38716;BME280;24833;49.324;8.694;2023-06-14T08:51:21;99524.66;;;23.86;35.63
38716;BME280;24833;49.324;8.694;2023-06-14T08:53:54;99531.94;;;23.96;35.65
38716;BME280;24833;49.324;8.694;2023-06-14T08:56:31;99525.06;;;23.98;35.52
38716;BME280;24833;49.324;8.694;2023-06-14T08:58:58;99526.78;;;23.94;34.49
38716;BME280;24833;49.324;8.694;2023-06-14T09:01:37;99537.13;;;23.92;33.92
38716;BME280;24833;49.324;8.694;2023-06-14T09:04:04;99538.88;;;23.83;34.39
38716;BME280;24833;49.324;8.694;2023-06-14T09:06:34;99526.09;;;23.78;34.19
38716;BME280;24833;49.324;8.694;2023-06-14T09:09:01;99529.63;;;23.79;34.83
38716;BME280;24833;49.324;8.694;2023-06-14T09:11:31;99524.09;;;23.89;35.12
38716;BME280;24833;49.324;8.694;2023-06-14T09:13:58;99532.16;;;23.99;35.56
38716;BME280;24833;49.324;8.694;2023-06-14T09:16:26;99530.53;;;23.98;34.17
38716;BME280;24833;49.324;8.694;2023-06-14T09:18:54;99528.72;;;24.12;34.90
38716;BME280;24833;49.324;8.694;2023-06-14T09:21:22;99530.00;;;24.20;34.80
38716;BME280;24833;49.324;8.694;2023-06-14T09:23:52;99527.03;;;24.16;33.24
38716;BME280;24833;49.324;8.694;2023-06-14T09:26:20;99530.78;;;24.20;33.69
38716;BME280;24833;49.324;8.694;2023-06-14T09:28:50;99527.97;;;24.31;33.75
38716;BME280;24833;49.324;8.694;2023-06-14T09:31:19;99525.72;;;24.38;33.95
38716;BME280;24833;49.324;8.694;2023-06-14T09:33:49;99530.97;;;24.53;33.76
38716;BME280;24833;49.324;8.694;2023-06-14T09:36:22;99534.59;;;24.67;32.61
38716;BME280;24833;49.324;8.694;2023-06-14T09:39:00;99532.97;;;24.66;32.60
38716;BME280;24833;49.324;8.694;2023-06-14T09:41:40;99529.06;;;24.72;33.62
38716;BME280;24833;49.324;8.694;2023-06-14T09:44:10;99529.88;;;24.73;32.87
38716;BME280;24833;49.324;8.694;2023-06-14T09:46:47;99530.53;;;24.84;32.78
38716;BME280;24833;49.324;8.694;2023-06-14T09:49:15;99527.31;;;24.82;32.68
38716;BME280;24833;49.324;8.694;2023-06-14T09:51:45;99525.44;;;24.77;32.49
38716;BME280;24833;49.324;8.694;2023-06-14T09:54:17;99532.09;;;24.90;33.32
38716;BME280;24833;49.324;8.694;2023-06-14T09:56:48;99531.34;;;25.03;32.89
38716;BME280;24833;49.324;8.694;2023-06-14T09:59:24;99535.72;;;25.04;32.61
38716;BME280;24833;49.324;8.694;2023-06-14T10:01:58;99537.72;;;25.17;32.65
38716;BME280;24833;49.324;8.694;2023-06-14T10:04:29;99528.25;;;25.29;32.71
38716;BME280;24833;49.324;8.694;2023-06-14T10:06:57;99531.91;;;25.38;32.68
38716;BME280;24833;49.324;8.694;2023-06-14T10:09:26;99530.28;;;25.37;30.70
38716;BME280;24833;49.324;8.694;2023-06-14T10:11:53;99532.59;;;25.30;31.79
38716;BME280;24833;49.324;8.694;2023-06-14T10:14:20;99521.19;;;25.41;31.66
38716;BME280;24833;49.324;8.694;2023-06-14T10:17:09;99520.41;;;25.54;31.70
38716;BME280;24833;49.324;8.694;2023-06-14T10:19:50;99531.25;;;25.60;30.29
38716;BME280;24833;49.324;8.694;2023-06-14T10:22:35;99529.69;;;25.72;31.96
38716;BME280;24833;49.324;8.694;2023-06-14T10:25:07;99526.22;;;25.80;30.39
38716;BME280;24833;49.324;8.694;2023-06-14T10:27:38;99521.97;;;25.74;29.95
38716;BME280;24833;49.324;8.694;2023-06-14T10:30:08;99525.34;;;25.52;28.89
38716;BME280;24833;49.324;8.694;2023-06-14T10:32:35;99526.50;;;25.33;29.81
38716;BME280;24833;49.324;8.694;2023-06-14T10:35:22;99521.47;;;25.40;30.72
38716;BME280;24833;49.324;8.694;2023-06-14T10:37:49;99528.41;;;25.51;30.01
38716;BME280;24833;49.324;8.694;2023-06-14T10:40:32;99526.81;;;25.64;30.84
38716;BME280;24833;49.324;8.694;2023-06-14T10:43:00;99528.88;;;25.86;31.11
38716;BME280;24833;49.324;8.694;2023-06-14T10:45:27;99518.34;;;25.93;30.23
38716;BME280;24833;49.324;8.694;2023-06-14T10:47:57;99515.81;;;26.10;30.84
38716;BME280;24833;49.324;8.694;2023-06-14T10:50:28;99520.56;;;26.32;31.12
38716;BME280;24833;49.324;8.694;2023-06-14T10:52:56;99522.97;;;26.61;30.57
38716;BME280;24833;49.324;8.694;2023-06-14T10:55:23;99519.16;;;26.84;30.68
38716;BME280;24833;49.324;8.694;2023-06-14T10:57:54;99518.19;;;27.03;28.96
38716;BME280;24833;49.324;8.694;2023-06-14T11:00:28;99516.03;;;26.77;28.08
38716;BME280;24833;49.324;8.694;2023-06-14T11:08:51;99516.31;;;26.40;27.18
38716;BME280;24833;49.324;8.694;2023-06-14T11:11:25;99509.84;;;26.22;28.37
38716;BME280;24833;49.324;8.694;2023-06-14T11:14:00;99522.41;;;26.37;28.91
38716;BME280;24833;49.324;8.694;2023-06-14T11:16:28;99519.16;;;26.48;29.27
38716;BME280;24833;49.324;8.694;2023-06-14T11:18:55;99519.97;;;26.49;28.05
38716;BME280;24833;49.324;8.694;2023-06-14T11:21:24;99517.91;;;26.54;28.59
38716;BME280;24833;49.324;8.694;2023-06-14T11:23:52;99509.78;;;26.63;28.72
38716;BME280;24833;49.324;8.694;2023-06-14T11:26:28;99528.50;;;26.83;29.22
38716;BME280;24833;49.324;8.694;2023-06-14T11:28:58;99525.72;;;26.61;27.39
38716;BME280;24833;49.324;8.694;2023-06-14T11:31:26;99524.22;;;26.55;27.21
38716;BME280;24833;49.324;8.694;2023-06-14T11:33:56;99523.59;;;26.58;27.49
38716;BME280;24833;49.324;8.694;2023-06-14T11:36:31;99525.19;;;26.73;29.05
38716;BME280;24833;49.324;8.694;2023-06-14T11:39:02;99518.91;;;26.72;29.09
38716;BME280;24833;49.324;8.694;2023-06-14T11:44:02;99514.47;;;26.63;28.54
38716;BME280;24833;49.324;8.694;2023-06-14T11:46:30;99528.47;;;26.33;27.46
38716;BME280;24833;49.324;8.694;2023-06-14T11:48:57;99523.50;;;26.35;28.18
38716;BME280;24833;49.324;8.694;2023-06-14T11:51:25;99518.53;;;26.38;27.71
38716;BME280;24833;49.324;8.694;2023-06-14T11:53:52;99519.78;;;26.04;28.16
38716;BME280;24833;49.324;8.694;2023-06-14T11:56:19;99516.53;;;26.02;28.13
38716;BME280;24833;49.324;8.694;2023-06-14T11:58:47;99518.28;;;25.65;28.80
38716;BME280;24833;49.324;8.694;2023-06-14T12:01:17;99519.09;;;25.66;28.91
38716;BME280;24833;49.324;8.694;2023-06-14T12:03:49;99524.94;;;25.78;29.60
38716;BME280;24833;49.324;8.694;2023-06-14T12:06:29;99524.94;;;25.92;29.60
38716;BME280;24833;49.324;8.694;2023-06-14T12:09:03;99525.25;;;26.04;29.92
38716;BME280;24833;49.324;8.694;2023-06-14T12:11:34;99532.03;;;26.20;29.61
38716;BME280;24833;49.324;8.694;2023-06-14T12:14:03;99526.25;;;26.35;29.64
38716;BME280;24833;49.324;8.694;2023-06-14T12:16:37;99518.97;;;26.45;29.01
38716;BME280;24833;49.324;8.694;2023-06-14T12:19:16;99519.78;;;26.45;28.46
38716;BME280;24833;49.324;8.694;2023-06-14T12:21:46;99520.97;;;26.25;28.57
38716;BME280;24833;49.324;8.694;2023-06-14T12:24:16;99518.16;;;26.44;29.33
38716;BME280;24833;49.324;8.694;2023-06-14T12:26:43;99516.84;;;26.42;27.98
38716;BME280;24833;49.324;8.694;2023-06-14T12:29:11;99522.09;;;26.38;27.88
38716;BME280;24833;49.324;8.694;2023-06-14T12:31:40;99509.03;;;26.49;28.25
38716;BME280;24833;49.324;8.694;2023-06-14T12:34:08;99508.56;;;26.69;28.78
38716;BME280;24833;49.324;8.694;2023-06-14T12:36:35;99511.31;;;26.92;28.44
38716;BME280;24833;49.324;8.694;2023-06-14T12:39:08;99511.50;;;27.09;28.59
38716;BME280;24833;49.324;8.694;2023-06-14T12:41:36;99515.97;;;27.27;29.06
38716;BME280;24833;49.324;8.694;2023-06-14T12:44:08;99525.94;;;27.46;28.75
38716;BME280;24833;49.324;8.694;2023-06-14T12:46:36;99520.03;;;27.61;28.67
38716;BME280;24833;49.324;8.694;2023-06-14T12:49:03;99518.19;;;27.70;28.96
38716;BME280;24833;49.324;8.694;2023-06-14T12:51:30;99520.28;;;27.73;28.92
38716;BME280;24833;49.324;8.694;2023-06-14T12:53:57;99516.16;;;27.84;28.65
38716;BME280;24833;49.324;8.694;2023-06-14T12:56:25;99511.81;;;27.92;28.36
38716;BME280;24833;49.324;8.694;2023-06-14T12:58:53;99520.50;;;27.85;27.57
38716;BME280;24833;49.324;8.694;2023-06-14T13:01:20;99513.19;;;27.72;27.38
38716;BME280;24833;49.324;8.694;2023-06-14T13:03:47;99525.47;;;27.75;28.23
38716;BME280;24833;49.324;8.694;2023-06-14T13:06:15;99531.41;;;27.46;27.66
38716;BME280;24833;49.324;8.694;2023-06-14T13:08:42;99535.09;;;27.19;26.97
38716;BME280;24833;49.324;8.694;2023-06-14T13:11:09;99532.16;;;27.15;27.99
38716;BME280;24833;49.324;8.694;2023-06-14T13:13:36;99537.78;;;27.32;28.35
38716;BME280;24833;49.324;8.694;2023-06-14T13:16:03;99536.53;;;27.38;27.85
38716;BME280;24833;49.324;8.694;2023-06-14T13:18:30;99537.66;;;27.37;28.10
38716;BME280;24833;49.324;8.694;2023-06-14T13:20:57;99533.16;;;27.41;28.49
38716;BME280;24833;49.324;8.694;2023-06-14T13:23:24;99526.22;;;26.99;27.62
38716;BME280;24833;49.324;8.694;2023-06-14T13:25:52;99520.22;;;27.11;27.54